XNO23M EDDK-EGCC
Flight info
| Callsign | XNO23M |
|---|---|
| Flight time | 1h 8m |
| Altitude | 34000 |
| Route | NVO2R NVO Y868 SOGRI L608 DENUT L610 LAM UN57 WELIN T420 ELVOS |
| Aircraft | A321/M-SDE3FGHIRWY/LB1 |
Departure
| Time | 2026-04-25 15:13 |
|---|---|
| Airport | Cologne Bonn Airport (EDDK) |
Arrival
| Time | 2026-04-25 16:21 |
|---|---|
| Airport | Manchester Airport (EGCC) |
| Time | Latitude | Longitude | Altitude | Speed | Heading |
|---|---|---|---|---|---|
| 2026-04-25 14:23 | 50.88266 | 7.11607 | 233 ft | 0 kts | 285° |
| 2026-04-25 14:49 | 50.88260 | 7.11640 | 232 ft | 4 kts | 290° |
| 2026-04-25 14:49 | 50.88249 | 7.11672 | 232 ft | 4 kts | 342° |
| 2026-04-25 14:49 | 50.88244 | 7.11676 | 233 ft | 3 kts | 36° |
| 2026-04-25 14:49 | 50.88268 | 7.11685 | 232 ft | 4 kts | 17° |
| 2026-04-25 14:50 | 50.88283 | 7.11715 | 230 ft | 4 kts | 67° |
| 2026-04-25 14:50 | 50.88284 | 7.11723 | 230 ft | 0 kts | 70° |
| 2026-04-25 15:01 | 50.88284 | 7.11724 | 230 ft | 1 kts | 70° |
| 2026-04-25 15:01 | 50.88293 | 7.11761 | 232 ft | 9 kts | 70° |
| 2026-04-25 15:01 | 50.88304 | 7.11863 | 230 ft | 10 kts | 103° |
| 2026-04-25 15:02 | 50.88266 | 7.11958 | 230 ft | 11 kts | 127° |
| 2026-04-25 15:02 | 50.88220 | 7.12057 | 230 ft | 12 kts | 126° |
| 2026-04-25 15:02 | 50.88171 | 7.12164 | 230 ft | 12 kts | 126° |
| 2026-04-25 15:02 | 50.88123 | 7.12268 | 230 ft | 10 kts | 126° |
| 2026-04-25 15:03 | 50.88082 | 7.12357 | 230 ft | 9 kts | 126° |
| 2026-04-25 15:03 | 50.88053 | 7.12431 | 230 ft | 8 kts | 117° |
| 2026-04-25 15:03 | 50.88026 | 7.12512 | 232 ft | 9 kts | 117° |
| 2026-04-25 15:03 | 50.87989 | 7.12590 | 231 ft | 9 kts | 140° |
| 2026-04-25 15:04 | 50.87926 | 7.12622 | 231 ft | 10 kts | 181° |
| 2026-04-25 15:04 | 50.87851 | 7.12614 | 230 ft | 11 kts | 172° |
| 2026-04-25 15:04 | 50.87782 | 7.12680 | 230 ft | 12 kts | 138° |
| 2026-04-25 15:04 | 50.87718 | 7.12772 | 230 ft | 13 kts | 137° |
| 2026-04-25 15:05 | 50.87655 | 7.12863 | 230 ft | 13 kts | 137° |
| 2026-04-25 15:05 | 50.87588 | 7.12960 | 230 ft | 14 kts | 137° |
| 2026-04-25 15:05 | 50.87518 | 7.13061 | 232 ft | 13 kts | 137° |
| 2026-04-25 15:06 | 50.87381 | 7.13259 | 233 ft | 14 kts | 137° |
| 2026-04-25 15:06 | 50.87311 | 7.13360 | 235 ft | 13 kts | 137° |
| 2026-04-25 15:06 | 50.87245 | 7.13457 | 237 ft | 13 kts | 137° |
| 2026-04-25 15:06 | 50.87183 | 7.13548 | 238 ft | 12 kts | 137° |
| 2026-04-25 15:07 | 50.87119 | 7.13640 | 240 ft | 14 kts | 137° |
| 2026-04-25 15:07 | 50.87038 | 7.13757 | 242 ft | 15 kts | 137° |
| 2026-04-25 15:07 | 50.86951 | 7.13883 | 243 ft | 19 kts | 137° |
| 2026-04-25 15:07 | 50.86843 | 7.14038 | 247 ft | 19 kts | 137° |
| 2026-04-25 15:08 | 50.86744 | 7.14138 | 252 ft | 15 kts | 156° |
| 2026-04-25 15:08 | 50.86668 | 7.14232 | 256 ft | 13 kts | 136° |
| 2026-04-25 15:08 | 50.86596 | 7.14340 | 258 ft | 16 kts | 137° |
| 2026-04-25 15:08 | 50.86499 | 7.14477 | 258 ft | 21 kts | 139° |
| 2026-04-25 15:09 | 50.86390 | 7.14636 | 264 ft | 22 kts | 137° |
| 2026-04-25 15:09 | 50.86268 | 7.14810 | 269 ft | 24 kts | 136° |
| 2026-04-25 15:09 | 50.85988 | 7.15217 | 277 ft | 30 kts | 137° |
| 2026-04-25 15:10 | 50.85887 | 7.15362 | 282 ft | 30 kts | 137° |
| 2026-04-25 15:10 | 50.85684 | 7.15658 | 295 ft | 28 kts | 138° |
| 2026-04-25 15:10 | 50.85410 | 7.16050 | 301 ft | 23 kts | 137° |
| 2026-04-25 15:11 | 50.85338 | 7.16227 | 306 ft | 17 kts | 97° |
| 2026-04-25 15:11 | 50.85353 | 7.16380 | 310 ft | 9 kts | 69° |
| 2026-04-25 15:11 | 50.85386 | 7.16455 | 312 ft | 8 kts | 42° |
| 2026-04-25 15:12 | 50.85473 | 7.16521 | 314 ft | 10 kts | 12° |
| 2026-04-25 15:12 | 50.85578 | 7.16488 | 310 ft | 20 kts | 323° |
| 2026-04-25 15:12 | 50.85695 | 7.16317 | 307 ft | 35 kts | 317° |
| 2026-04-25 15:12 | 50.85774 | 7.16202 | 303 ft | 60 kts | 317° |
| 2026-04-25 15:13 | 50.86755 | 7.14779 | 259 ft | 161 kts | 317° |
| 2026-04-25 15:13 | 50.88557 | 7.12227 | 1246 ft | 182 kts | 318° |
| 2026-04-25 15:13 | 50.89498 | 7.10897 | 2112 ft | 179 kts | 317° |
| 2026-04-25 15:14 | 50.90432 | 7.09436 | 2380 ft | 200 kts | 309° |
| 2026-04-25 15:14 | 50.91117 | 7.07434 | 2846 ft | 213 kts | 287° |
| 2026-04-25 15:14 | 50.91242 | 7.05066 | 3622 ft | 216 kts | 262° |
| 2026-04-25 15:14 | 50.90773 | 7.02793 | 4370 ft | 223 kts | 252° |
| 2026-04-25 15:15 | 50.90191 | 7.00321 | 4698 ft | 246 kts | 253° |
| 2026-04-25 15:15 | 50.89607 | 6.97737 | 5131 ft | 260 kts | 253° |
| 2026-04-25 15:15 | 50.89001 | 6.95002 | 5833 ft | 265 kts | 254° |
| 2026-04-25 15:15 | 50.88395 | 6.92231 | 6563 ft | 268 kts | 254° |
| 2026-04-25 15:16 | 50.87793 | 6.89461 | 7271 ft | 271 kts | 254° |
| 2026-04-25 15:16 | 50.87184 | 6.86630 | 7983 ft | 273 kts | 254° |
| 2026-04-25 15:16 | 50.85948 | 6.80852 | 9430 ft | 278 kts | 254° |
| 2026-04-25 15:17 | 50.84688 | 6.74958 | 10555 ft | 295 kts | 254° |
| 2026-04-25 15:17 | 50.84008 | 6.71770 | 10685 ft | 317 kts | 254° |
| 2026-04-25 15:17 | 50.83277 | 6.68348 | 10812 ft | 339 kts | 254° |
| 2026-04-25 15:18 | 50.82547 | 6.64698 | 10926 ft | 357 kts | 259° |
| 2026-04-25 15:18 | 50.82367 | 6.56712 | 11779 ft | 370 kts | 273° |
| 2026-04-25 15:18 | 50.82421 | 6.52628 | 12401 ft | 373 kts | 272° |
| 2026-04-25 15:19 | 50.82469 | 6.48506 | 13021 ft | 376 kts | 272° |
| 2026-04-25 15:19 | 50.82484 | 6.47165 | 13223 ft | 377 kts | 272° |
| 2026-04-25 15:19 | 50.82559 | 6.40155 | 14235 ft | 383 kts | 272° |
| 2026-04-25 15:19 | 50.82607 | 6.35935 | 14797 ft | 386 kts | 272° |
| 2026-04-25 15:20 | 50.82641 | 6.33113 | 15175 ft | 388 kts | 272° |
| 2026-04-25 15:20 | 50.82687 | 6.28834 | 15741 ft | 391 kts | 272° |
| 2026-04-25 15:20 | 50.82730 | 6.24511 | 16314 ft | 394 kts | 272° |
| 2026-04-25 15:20 | 50.82784 | 6.18743 | 17051 ft | 398 kts | 272° |
| 2026-04-25 15:21 | 50.82824 | 6.14349 | 17586 ft | 401 kts | 272° |
| 2026-04-25 15:21 | 50.82850 | 6.11365 | 17943 ft | 403 kts | 272° |
| 2026-04-25 15:21 | 50.82890 | 6.06912 | 18419 ft | 407 kts | 272° |
| 2026-04-25 15:21 | 50.82931 | 6.02429 | 18831 ft | 410 kts | 272° |
| 2026-04-25 15:22 | 50.82935 | 5.97907 | 19269 ft | 412 kts | 271° |
| 2026-04-25 15:22 | 50.82872 | 5.93360 | 19707 ft | 415 kts | 270° |
| 2026-04-25 15:22 | 50.82767 | 5.88791 | 20152 ft | 417 kts | 269° |
| 2026-04-25 15:22 | 50.82641 | 5.84205 | 20594 ft | 419 kts | 269° |
| 2026-04-25 15:23 | 50.82512 | 5.79596 | 21029 ft | 421 kts | 269° |
| 2026-04-25 15:23 | 50.82388 | 5.74963 | 21460 ft | 423 kts | 270° |
| 2026-04-25 15:23 | 50.82269 | 5.70303 | 21880 ft | 425 kts | 270° |
| 2026-04-25 15:23 | 50.82156 | 5.65625 | 22294 ft | 427 kts | 270° |
| 2026-04-25 15:24 | 50.82049 | 5.60934 | 22720 ft | 429 kts | 270° |
| 2026-04-25 15:24 | 50.81946 | 5.56205 | 23124 ft | 431 kts | 270° |
| 2026-04-25 15:24 | 50.81843 | 5.51466 | 23526 ft | 433 kts | 270° |
| 2026-04-25 15:24 | 50.81771 | 5.48309 | 23780 ft | 434 kts | 270° |
| 2026-04-25 15:25 | 50.81621 | 5.41916 | 24213 ft | 436 kts | 270° |
| 2026-04-25 15:25 | 50.81501 | 5.37112 | 24536 ft | 438 kts | 270° |
| 2026-04-25 15:25 | 50.81378 | 5.32294 | 24858 ft | 440 kts | 270° |
| 2026-04-25 15:25 | 50.81251 | 5.27452 | 25182 ft | 442 kts | 270° |
| 2026-04-25 15:26 | 50.81121 | 5.22588 | 25496 ft | 444 kts | 270° |
| 2026-04-25 15:26 | 50.80988 | 5.17706 | 25835 ft | 445 kts | 270° |
| 2026-04-25 15:26 | 50.80856 | 5.12801 | 26130 ft | 447 kts | 269° |
| 2026-04-25 15:26 | 50.80768 | 5.07887 | 26474 ft | 447 kts | 273° |
| 2026-04-25 15:27 | 50.81072 | 5.03026 | 26900 ft | 443 kts | 281° |
| 2026-04-25 15:27 | 50.81824 | 4.98315 | 27325 ft | 441 kts | 288° |
| 2026-04-25 15:27 | 50.83604 | 4.89069 | 28191 ft | 438 kts | 287° |
| 2026-04-25 15:28 | 50.84484 | 4.84458 | 28630 ft | 437 kts | 287° |
| 2026-04-25 15:28 | 50.85355 | 4.79851 | 29057 ft | 436 kts | 287° |
| 2026-04-25 15:28 | 50.86217 | 4.75259 | 29497 ft | 435 kts | 287° |
| 2026-04-25 15:28 | 50.87074 | 4.70677 | 29924 ft | 433 kts | 287° |
| 2026-04-25 15:29 | 50.87927 | 4.66112 | 30327 ft | 433 kts | 287° |
| 2026-04-25 15:29 | 50.88781 | 4.61547 | 30673 ft | 432 kts | 287° |
| 2026-04-25 15:29 | 50.89640 | 4.56992 | 31022 ft | 431 kts | 288° |
| 2026-04-25 15:29 | 50.90775 | 4.52606 | 31362 ft | 430 kts | 297° |
| 2026-04-25 15:30 | 50.92286 | 4.48514 | 31696 ft | 430 kts | 301° |
| 2026-04-25 15:30 | 50.93846 | 4.44485 | 32038 ft | 429 kts | 300° |
| 2026-04-25 15:30 | 50.95397 | 4.40444 | 32382 ft | 428 kts | 300° |
| 2026-04-25 15:30 | 50.96919 | 4.36461 | 32712 ft | 428 kts | 300° |
| 2026-04-25 15:31 | 50.98456 | 4.32428 | 33049 ft | 427 kts | 300° |
| 2026-04-25 15:31 | 50.99990 | 4.28399 | 33371 ft | 426 kts | 300° |
| 2026-04-25 15:31 | 51.01523 | 4.24377 | 33708 ft | 425 kts | 300° |
| 2026-04-25 15:31 | 51.03072 | 4.20312 | 34038 ft | 425 kts | 300° |
| 2026-04-25 15:32 | 51.04602 | 4.16293 | 34177 ft | 426 kts | 300° |
| 2026-04-25 15:32 | 51.07644 | 4.08271 | 34191 ft | 426 kts | 300° |
| 2026-04-25 15:33 | 51.12228 | 3.96151 | 34189 ft | 426 kts | 300° |
| 2026-04-25 15:33 | 51.15279 | 3.88057 | 34188 ft | 426 kts | 299° |
| 2026-04-25 15:34 | 51.18322 | 3.79942 | 34187 ft | 426 kts | 299° |
| 2026-04-25 15:34 | 51.20862 | 3.73133 | 34187 ft | 427 kts | 299° |
| 2026-04-25 15:35 | 51.23883 | 3.63285 | 34186 ft | 425 kts | 285° |
| 2026-04-25 15:35 | 51.24561 | 3.58694 | 34195 ft | 425 kts | 281° |
| 2026-04-25 15:36 | 51.26392 | 3.44821 | 34201 ft | 426 kts | 281° |
| 2026-04-25 15:36 | 51.27612 | 3.35559 | 34217 ft | 426 kts | 281° |
| 2026-04-25 15:37 | 51.28806 | 3.26281 | 34217 ft | 427 kts | 281° |
| 2026-04-25 15:37 | 51.29986 | 3.16965 | 34224 ft | 428 kts | 281° |
| 2026-04-25 15:38 | 51.31174 | 3.07634 | 34225 ft | 429 kts | 281° |
| 2026-04-25 15:38 | 51.32354 | 2.98292 | 34227 ft | 429 kts | 281° |
| 2026-04-25 15:39 | 51.33518 | 2.88938 | 34231 ft | 429 kts | 281° |
| 2026-04-25 15:39 | 51.34682 | 2.79566 | 34228 ft | 430 kts | 280° |
| 2026-04-25 15:40 | 51.35459 | 2.73286 | 34224 ft | 431 kts | 280° |
| 2026-04-25 15:40 | 51.37012 | 2.60755 | 34226 ft | 431 kts | 280° |
| 2026-04-25 15:41 | 51.38168 | 2.51333 | 34229 ft | 432 kts | 280° |
| 2026-04-25 15:41 | 51.39313 | 2.41895 | 34231 ft | 432 kts | 280° |
| 2026-04-25 15:42 | 51.40446 | 2.32440 | 34232 ft | 433 kts | 280° |
| 2026-04-25 15:42 | 51.41575 | 2.23030 | 34235 ft | 433 kts | 280° |
| 2026-04-25 15:43 | 51.42743 | 2.13487 | 34233 ft | 434 kts | 280° |
| 2026-04-25 15:43 | 51.43901 | 2.04005 | 34234 ft | 434 kts | 280° |
| 2026-04-25 15:44 | 51.45045 | 1.94501 | 34237 ft | 434 kts | 279° |
| 2026-04-25 15:44 | 51.46152 | 1.85046 | 34241 ft | 434 kts | 279° |
| 2026-04-25 15:45 | 51.47253 | 1.75529 | 34242 ft | 434 kts | 279° |
| 2026-04-25 15:45 | 51.47983 | 1.69163 | 34240 ft | 434 kts | 279° |
| 2026-04-25 15:46 | 51.49435 | 1.56478 | 34240 ft | 434 kts | 279° |
| 2026-04-25 15:46 | 51.50518 | 1.46952 | 34238 ft | 434 kts | 279° |
| 2026-04-25 15:47 | 51.51593 | 1.37421 | 34230 ft | 434 kts | 280° |
| 2026-04-25 15:47 | 51.52657 | 1.27862 | 34226 ft | 435 kts | 279° |
| 2026-04-25 15:48 | 51.53713 | 1.18286 | 34229 ft | 436 kts | 279° |
| 2026-04-25 15:48 | 51.54765 | 1.08696 | 34231 ft | 436 kts | 279° |
| 2026-04-25 15:49 | 51.55804 | 0.99105 | 34232 ft | 436 kts | 279° |
| 2026-04-25 15:49 | 51.56847 | 0.89497 | 34206 ft | 437 kts | 280° |
| 2026-04-25 15:50 | 51.57883 | 0.79870 | 34205 ft | 437 kts | 280° |
| 2026-04-25 15:50 | 51.58905 | 0.70225 | 34205 ft | 438 kts | 279° |
| 2026-04-25 15:51 | 51.59588 | 0.63771 | 34205 ft | 438 kts | 280° |
| 2026-04-25 15:51 | 51.60936 | 0.50914 | 34207 ft | 438 kts | 279° |
| 2026-04-25 15:52 | 51.61936 | 0.41247 | 34210 ft | 438 kts | 279° |
| 2026-04-25 15:52 | 51.62930 | 0.31563 | 34208 ft | 438 kts | 279° |
| 2026-04-25 15:53 | 51.63987 | 0.21911 | 34210 ft | 438 kts | 284° |
| 2026-04-25 15:53 | 51.66428 | 0.12958 | 34208 ft | 439 kts | 303° |
| 2026-04-25 15:54 | 51.70469 | 0.05564 | 34206 ft | 441 kts | 313° |
| 2026-04-25 15:54 | 51.74768 | -0.01499 | 34248 ft | 442 kts | 313° |
| 2026-04-25 15:55 | 51.79039 | -0.08554 | 34247 ft | 442 kts | 312° |
| 2026-04-25 15:55 | 51.83368 | -0.15724 | 34205 ft | 443 kts | 312° |
| 2026-04-25 15:56 | 51.87677 | -0.22867 | 34202 ft | 444 kts | 312° |
| 2026-04-25 15:56 | 51.91962 | -0.29995 | 34199 ft | 444 kts | 312° |
| 2026-04-25 15:57 | 51.96296 | -0.37233 | 33948 ft | 445 kts | 312° |
| 2026-04-25 15:57 | 51.98448 | -0.40832 | 33678 ft | 445 kts | 312° |
| 2026-04-25 15:57 | 52.00601 | -0.44432 | 33403 ft | 445 kts | 312° |
| 2026-04-25 15:58 | 52.02758 | -0.48042 | 33128 ft | 445 kts | 312° |
| 2026-04-25 15:58 | 52.04914 | -0.51664 | 32875 ft | 446 kts | 312° |
| 2026-04-25 15:58 | 52.07069 | -0.55298 | 32617 ft | 447 kts | 312° |
| 2026-04-25 15:58 | 52.09223 | -0.58936 | 32356 ft | 448 kts | 312° |
| 2026-04-25 15:59 | 52.11383 | -0.62584 | 32098 ft | 448 kts | 312° |
| 2026-04-25 15:59 | 52.13550 | -0.66246 | 31843 ft | 449 kts | 312° |
| 2026-04-25 15:59 | 52.15712 | -0.69908 | 31588 ft | 449 kts | 312° |
| 2026-04-25 15:59 | 52.17881 | -0.73585 | 31219 ft | 449 kts | 312° |
| 2026-04-25 16:00 | 52.20057 | -0.77283 | 30217 ft | 456 kts | 312° |
| 2026-04-25 16:00 | 52.20769 | -0.78495 | 29866 ft | 457 kts | 312° |
| 2026-04-25 16:00 | 52.24562 | -0.84637 | 28243 ft | 461 kts | 319° |
| 2026-04-25 16:00 | 52.27182 | -0.87669 | 27518 ft | 461 kts | 327° |
| 2026-04-25 16:01 | 52.29938 | -0.90373 | 26867 ft | 463 kts | 327° |
| 2026-04-25 16:01 | 52.32696 | -0.93107 | 26179 ft | 465 kts | 327° |
| 2026-04-25 16:01 | 52.35430 | -0.95835 | 25514 ft | 467 kts | 327° |
| 2026-04-25 16:01 | 52.38207 | -0.98617 | 24835 ft | 469 kts | 327° |
| 2026-04-25 16:02 | 52.41033 | -1.01451 | 24138 ft | 469 kts | 327° |
| 2026-04-25 16:02 | 52.43797 | -1.04230 | 23376 ft | 465 kts | 327° |
| 2026-04-25 16:02 | 52.46507 | -1.06960 | 22697 ft | 460 kts | 327° |
| 2026-04-25 16:02 | 52.49220 | -1.09688 | 22041 ft | 455 kts | 327° |
| 2026-04-25 16:03 | 52.51908 | -1.12390 | 21378 ft | 450 kts | 327° |
| 2026-04-25 16:03 | 52.54536 | -1.15031 | 21101 ft | 435 kts | 327° |
| 2026-04-25 16:03 | 52.57062 | -1.17568 | 20966 ft | 417 kts | 327° |
| 2026-04-25 16:03 | 52.59491 | -1.20007 | 20837 ft | 401 kts | 327° |
| 2026-04-25 16:04 | 52.61083 | -1.21609 | 20754 ft | 392 kts | 327° |
| 2026-04-25 16:04 | 52.63369 | -1.23917 | 20622 ft | 379 kts | 327° |
| 2026-04-25 16:04 | 52.65578 | -1.26155 | 20495 ft | 367 kts | 327° |
| 2026-04-25 16:04 | 52.67712 | -1.28323 | 20369 ft | 354 kts | 327° |
| 2026-04-25 16:05 | 52.69779 | -1.30426 | 20197 ft | 344 kts | 327° |
| 2026-04-25 16:05 | 52.71804 | -1.32486 | 20157 ft | 342 kts | 327° |
| 2026-04-25 16:05 | 52.75830 | -1.36588 | 19670 ft | 342 kts | 327° |
| 2026-04-25 16:06 | 52.77878 | -1.38678 | 19190 ft | 341 kts | 326° |
| 2026-04-25 16:06 | 52.79893 | -1.40740 | 18778 ft | 340 kts | 326° |
| 2026-04-25 16:06 | 52.81895 | -1.42790 | 18353 ft | 337 kts | 326° |
| 2026-04-25 16:06 | 52.83858 | -1.44799 | 17896 ft | 335 kts | 326° |
| 2026-04-25 16:07 | 52.85835 | -1.46824 | 17444 ft | 333 kts | 327° |
| 2026-04-25 16:07 | 52.87160 | -1.48181 | 17145 ft | 331 kts | 327° |
| 2026-04-25 16:07 | 52.89744 | -1.50835 | 16568 ft | 328 kts | 327° |
| 2026-04-25 16:07 | 52.91705 | -1.52852 | 16116 ft | 326 kts | 327° |
| 2026-04-25 16:08 | 52.93601 | -1.54806 | 15686 ft | 325 kts | 327° |
| 2026-04-25 16:08 | 52.95517 | -1.56779 | 15264 ft | 323 kts | 327° |
| 2026-04-25 16:08 | 52.97447 | -1.58772 | 14498 ft | 333 kts | 327° |
| 2026-04-25 16:08 | 52.99443 | -1.60837 | 13602 ft | 344 kts | 327° |
| 2026-04-25 16:09 | 53.01485 | -1.62951 | 12632 ft | 344 kts | 327° |
| 2026-04-25 16:09 | 53.03491 | -1.65024 | 11710 ft | 335 kts | 327° |
| 2026-04-25 16:09 | 53.05380 | -1.67178 | 10842 ft | 325 kts | 317° |
| 2026-04-25 16:09 | 53.06894 | -1.69887 | 10003 ft | 316 kts | 310° |
| 2026-04-25 16:10 | 53.08312 | -1.72633 | 9137 ft | 309 kts | 310° |
| 2026-04-25 16:10 | 53.09698 | -1.75315 | 8300 ft | 303 kts | 310° |
| 2026-04-25 16:10 | 53.11049 | -1.77931 | 7693 ft | 291 kts | 310° |
| 2026-04-25 16:10 | 53.12339 | -1.80436 | 7325 ft | 283 kts | 310° |
| 2026-04-25 16:11 | 53.13615 | -1.82919 | 6974 ft | 281 kts | 310° |
| 2026-04-25 16:11 | 53.14869 | -1.85358 | 6635 ft | 272 kts | 311° |
| 2026-04-25 16:11 | 53.16076 | -1.87707 | 6291 ft | 263 kts | 311° |
| 2026-04-25 16:11 | 53.17247 | -1.89985 | 5975 ft | 254 kts | 311° |
| 2026-04-25 16:12 | 53.18378 | -1.92190 | 5677 ft | 246 kts | 311° |
| 2026-04-25 16:12 | 53.19492 | -1.94369 | 5253 ft | 250 kts | 311° |
| 2026-04-25 16:12 | 53.20623 | -1.96581 | 4891 ft | 250 kts | 311° |
| 2026-04-25 16:12 | 53.21367 | -1.98037 | 4662 ft | 249 kts | 311° |
| 2026-04-25 16:13 | 53.22863 | -2.00953 | 4259 ft | 245 kts | 313° |
| 2026-04-25 16:13 | 53.24243 | -2.02516 | 3955 ft | 239 kts | 346° |
| 2026-04-25 16:13 | 53.25841 | -2.02684 | 3884 ft | 231 kts | 5° |
| 2026-04-25 16:13 | 53.27456 | -2.02489 | 3838 ft | 233 kts | 5° |
| 2026-04-25 16:14 | 53.29072 | -2.02289 | 3797 ft | 228 kts | 5° |
| 2026-04-25 16:14 | 53.30622 | -2.02103 | 3747 ft | 220 kts | 5° |
| 2026-04-25 16:14 | 53.32137 | -2.01918 | 3683 ft | 218 kts | 5° |
| 2026-04-25 16:14 | 53.33644 | -2.01731 | 3591 ft | 217 kts | 5° |
| 2026-04-25 16:15 | 53.35143 | -2.01543 | 3501 ft | 216 kts | 6° |
| 2026-04-25 16:15 | 53.36640 | -2.01357 | 3510 ft | 215 kts | 6° |
| 2026-04-25 16:15 | 53.38131 | -2.01176 | 3514 ft | 215 kts | 5° |
| 2026-04-25 16:15 | 53.39625 | -2.00993 | 3514 ft | 215 kts | 5° |
| 2026-04-25 16:16 | 53.41120 | -2.00810 | 3520 ft | 213 kts | 6° |
| 2026-04-25 16:16 | 53.42524 | -2.00638 | 3529 ft | 191 kts | 6° |
| 2026-04-25 16:16 | 53.43781 | -2.00499 | 3513 ft | 174 kts | 1° |
| 2026-04-25 16:16 | 53.44923 | -2.01019 | 3479 ft | 171 kts | 330° |
| 2026-04-25 16:17 | 53.45727 | -2.02434 | 3426 ft | 170 kts | 298° |
| 2026-04-25 16:17 | 53.45982 | -2.04310 | 3357 ft | 163 kts | 268° |
| 2026-04-25 16:17 | 53.45654 | -2.06078 | 3205 ft | 158 kts | 237° |
| 2026-04-25 16:17 | 53.44986 | -2.07508 | 3028 ft | 154 kts | 231° |
| 2026-04-25 16:18 | 53.44318 | -2.08898 | 2829 ft | 152 kts | 231° |
| 2026-04-25 16:18 | 53.44095 | -2.09363 | 2765 ft | 152 kts | 231° |
| 2026-04-25 16:18 | 53.43000 | -2.11647 | 2425 ft | 151 kts | 231° |
| 2026-04-25 16:18 | 53.42344 | -2.13014 | 2221 ft | 150 kts | 231° |
| 2026-04-25 16:19 | 53.41692 | -2.14372 | 2019 ft | 150 kts | 231° |
| 2026-04-25 16:19 | 53.41039 | -2.15729 | 1815 ft | 149 kts | 231° |
| 2026-04-25 16:19 | 53.40390 | -2.17081 | 1622 ft | 149 kts | 231° |
| 2026-04-25 16:20 | 53.39094 | -2.19775 | 1220 ft | 148 kts | 231° |
| 2026-04-25 16:20 | 53.38450 | -2.21113 | 1022 ft | 147 kts | 231° |
| 2026-04-25 16:20 | 53.37179 | -2.23751 | 632 ft | 144 kts | 231° |
| 2026-04-25 16:21 | 53.36551 | -2.25053 | 426 ft | 143 kts | 231° |
| 2026-04-25 16:21 | 53.35930 | -2.26343 | 267 ft | 138 kts | 231° |
| 2026-04-25 16:21 | 53.35468 | -2.27303 | 248 ft | 71 kts | 230° |
| 2026-04-25 16:21 | 53.35273 | -2.27765 | 238 ft | 36 kts | 255° |
| 2026-04-25 16:22 | 53.35241 | -2.28050 | 232 ft | 13 kts | 262° |
| 2026-04-25 16:22 | 53.35235 | -2.28174 | 231 ft | 9 kts | 283° |
| 2026-04-25 16:22 | 53.35281 | -2.28190 | 232 ft | 8 kts | 32° |
| 2026-04-25 16:22 | 53.35334 | -2.28117 | 237 ft | 10 kts | 41° |
| 2026-04-25 16:23 | 53.35390 | -2.28027 | 237 ft | 12 kts | 45° |
| 2026-04-25 16:23 | 53.35459 | -2.27931 | 238 ft | 13 kts | 25° |
| 2026-04-25 16:23 | 53.35559 | -2.27905 | 237 ft | 17 kts | 6° |
| 2026-04-25 16:23 | 53.35672 | -2.27885 | 243 ft | 15 kts | 5° |
| 2026-04-25 16:24 | 53.35765 | -2.27869 | 248 ft | 12 kts | 6° |
| 2026-04-25 16:24 | 53.35843 | -2.27857 | 252 ft | 11 kts | 5° |
| 2026-04-25 16:24 | 53.35921 | -2.27851 | 255 ft | 13 kts | 355° |
| 2026-04-25 16:24 | 53.36009 | -2.27928 | 255 ft | 15 kts | 319° |
| 2026-04-25 16:25 | 53.36093 | -2.28051 | 255 ft | 17 kts | 319° |
| 2026-04-25 16:25 | 53.36152 | -2.28144 | 255 ft | 18 kts | 315° |
| 2026-04-25 16:25 | 53.36270 | -2.28346 | 255 ft | 19 kts | 314° |
| 2026-04-25 16:25 | 53.36354 | -2.28464 | 255 ft | 15 kts | 345° |
| 2026-04-25 16:26 | 53.36414 | -2.28418 | 255 ft | 6 kts | 40° |
| 2026-04-25 16:26 | 53.36443 | -2.28378 | 255 ft | 5 kts | 30° |
| 2026-04-25 16:26 | 53.36483 | -2.28340 | 255 ft | 8 kts | 37° |
| 2026-04-25 16:26 | 53.36520 | -2.28321 | 255 ft | 4 kts | 347° |
| 2026-04-25 16:27 | 53.36539 | -2.28341 | 255 ft | 2 kts | 321° |
| 2026-04-25 16:27 | 53.36545 | -2.28353 | 255 ft | 1 kts | 315° |
| 2026-04-25 16:27 | 53.36551 | -2.28364 | 255 ft | 1 kts | 315° |
| 2026-04-25 16:27 | 53.36552 | -2.28364 | 255 ft | 0 kts | 315° |